createdAt,value
2023-01-08T00:00:01.049Z,19.67
2023-01-08T00:01:34.259Z,19.73
2023-01-08T00:03:07.580Z,19.95
2023-01-08T00:04:40.704Z,18.52
2023-01-08T00:06:16.296Z,17.88
2023-01-08T00:07:50.871Z,14.65
2023-01-08T00:09:24.091Z,15.93
2023-01-08T00:10:57.445Z,15.88
2023-01-08T00:12:30.703Z,15.70
2023-01-08T00:14:04.522Z,23.90
2023-01-08T00:15:37.633Z,13.85
2023-01-08T00:17:10.851Z,18.85
2023-01-08T00:18:45.273Z,15.43
2023-01-08T00:20:17.798Z,15.50
2023-01-08T00:21:50.921Z,16.30
2023-01-08T00:23:25.616Z,17.70
2023-01-08T00:24:58.863Z,18.95
2023-01-08T00:26:32.513Z,17.70
2023-01-08T00:28:04.793Z,19.00
2023-01-08T00:29:38.139Z,15.00
2023-01-08T00:31:13.113Z,13.80
2023-01-08T00:32:46.342Z,17.58
2023-01-08T00:34:19.543Z,17.65
2023-01-08T00:35:52.773Z,22.70
2023-01-08T00:37:26.140Z,17.67
2023-01-08T00:39:01.362Z,14.55
2023-01-08T00:40:34.733Z,17.25
2023-01-08T00:42:07.913Z,19.55
2023-01-08T00:43:41.282Z,12.13
2023-01-08T00:45:13.619Z,11.90
2023-01-08T00:46:46.818Z,17.55
2023-01-08T00:48:19.909Z,14.80
2023-01-08T00:49:53.327Z,15.85
2023-01-08T00:51:29.254Z,13.20
2023-01-08T00:53:03.679Z,16.00
2023-01-08T00:54:38.340Z,19.80
2023-01-08T00:56:12.454Z,14.38
2023-01-08T00:57:45.660Z,17.65
2023-01-08T00:59:18.888Z,20.85
2023-01-08T01:00:52.165Z,16.13
2023-01-08T01:02:25.578Z,13.25
2023-01-08T01:03:58.828Z,16.80
2023-01-08T01:05:32.028Z,15.50
2023-01-08T01:07:05.246Z,12.93
2023-01-08T01:08:37.437Z,16.42
2023-01-08T01:10:13.824Z,14.60
2023-01-08T01:11:46.980Z,14.80
2023-01-08T01:13:20.175Z,19.48
2023-01-08T01:14:52.474Z,16.65
2023-01-08T01:16:26.457Z,20.25
2023-01-08T01:17:59.845Z,15.73
2023-01-08T01:19:33.043Z,18.17
2023-01-08T01:21:11.804Z,15.60
2023-01-08T01:22:45.138Z,16.23
2023-01-08T01:24:18.422Z,15.07
2023-01-08T01:25:54.561Z,18.23
2023-01-08T01:27:27.829Z,11.57
2023-01-08T01:29:01.665Z,13.23
2023-01-08T01:30:35.803Z,24.23
2023-01-08T01:32:10.166Z,32.90
2023-01-08T01:33:42.608Z,29.90
2023-01-08T01:35:15.910Z,25.88
2023-01-08T01:36:48.084Z,27.90
2023-01-08T01:38:21.259Z,23.77
2023-01-08T01:39:56.170Z,20.85
2023-01-08T01:41:32.596Z,21.88
2023-01-08T01:43:04.776Z,23.83
2023-01-08T01:44:41.956Z,32.00
2023-01-08T01:46:23.707Z,30.20
2023-01-08T01:47:59.816Z,28.95
2023-01-08T01:49:34.038Z,31.20
2023-01-08T01:51:07.642Z,28.38
2023-01-08T01:52:43.800Z,29.30
2023-01-08T01:54:19.000Z,32.08
2023-01-08T01:55:52.730Z,34.05
2023-01-08T01:57:27.406Z,48.30
2023-01-08T01:59:00.872Z,34.78
2023-01-08T02:00:36.146Z,46.97
2023-01-08T02:02:10.140Z,52.92
2023-01-08T02:03:43.461Z,71.55
2023-01-08T02:05:16.734Z,54.58
2023-01-08T02:07:00.009Z,49.50
2023-01-08T02:08:41.384Z,21.92
2023-01-08T02:10:20.363Z,25.33
2023-01-08T02:12:14.574Z,25.90
2023-01-08T02:13:56.914Z,26.65
2023-01-08T02:15:40.054Z,25.77
2023-01-08T02:17:19.555Z,25.10
2023-01-08T02:18:58.578Z,18.83
2023-01-08T02:20:36.506Z,17.92
2023-01-08T02:22:22.555Z,16.23
2023-01-08T02:24:04.375Z,13.35
2023-01-08T02:25:55.032Z,15.27
2023-01-08T02:27:31.680Z,14.35
2023-01-08T02:29:08.217Z,15.60
2023-01-08T02:30:43.352Z,16.33
2023-01-08T02:32:17.407Z,14.02
2023-01-08T02:33:50.733Z,12.77
2023-01-08T02:35:23.850Z,17.85
2023-01-08T02:36:58.327Z,13.45
2023-01-08T02:38:32.749Z,15.05
2023-01-08T02:40:15.039Z,11.20
2023-01-08T02:42:06.803Z,9.82
2023-01-08T02:43:45.010Z,12.60
2023-01-08T02:45:29.786Z,11.57
2023-01-08T02:47:06.946Z,11.55
2023-01-08T02:48:44.816Z,13.55
2023-01-08T02:50:25.527Z,14.93
2023-01-08T02:52:01.749Z,14.30
2023-01-08T02:53:38.723Z,15.65
2023-01-08T02:55:12.251Z,16.15
2023-01-08T02:56:50.885Z,17.63
2023-01-08T02:58:29.065Z,17.05
2023-01-08T03:00:01.292Z,15.98
2023-01-08T03:01:36.106Z,11.60
2023-01-08T03:03:13.829Z,11.57
2023-01-08T03:05:08.764Z,12.70
2023-01-08T03:06:42.346Z,13.10
2023-01-08T03:08:15.751Z,11.68
2023-01-08T03:09:48.173Z,25.58
2023-01-08T03:11:23.264Z,27.23
2023-01-08T03:13:01.317Z,23.08
2023-01-08T03:14:39.859Z,16.60
2023-01-08T03:16:17.763Z,13.63
2023-01-08T03:17:55.200Z,14.27
2023-01-08T03:19:33.985Z,14.02
2023-01-08T03:21:08.122Z,16.83
2023-01-08T03:22:42.957Z,13.93
2023-01-08T03:24:20.120Z,13.85
2023-01-08T03:25:53.361Z,13.30
2023-01-08T03:27:31.232Z,19.70
2023-01-08T03:29:07.232Z,17.40
2023-01-08T03:30:44.056Z,17.23
2023-01-08T03:32:20.103Z,16.98
2023-01-08T03:33:54.952Z,16.65
2023-01-08T03:35:29.672Z,14.10
2023-01-08T03:37:07.714Z,16.60
2023-01-08T03:38:46.331Z,17.73
2023-01-08T03:40:23.115Z,20.35
2023-01-08T03:42:01.128Z,25.05
2023-01-08T03:43:34.635Z,25.80
2023-01-08T03:45:08.024Z,17.92
2023-01-08T03:46:49.077Z,22.67
2023-01-08T03:48:23.527Z,23.55
2023-01-08T03:49:58.833Z,23.70
2023-01-08T03:51:40.924Z,20.15
2023-01-08T03:53:14.486Z,18.17
2023-01-08T03:54:46.653Z,21.63
2023-01-08T03:56:19.900Z,20.77
2023-01-08T03:57:53.002Z,18.15
2023-01-08T03:59:26.622Z,24.08
2023-01-08T04:00:59.869Z,18.27
2023-01-08T04:02:34.528Z,20.05
2023-01-08T04:04:08.844Z,18.45
2023-01-08T04:05:42.051Z,28.65
2023-01-08T04:07:15.324Z,60.35
2023-01-08T04:08:49.161Z,53.97
2023-01-08T04:10:22.290Z,31.38
2023-01-08T04:11:55.557Z,19.60
2023-01-08T04:13:28.702Z,17.85
2023-01-08T04:15:00.862Z,18.13
2023-01-08T04:16:34.827Z,19.45
2023-01-08T04:18:09.403Z,17.23
2023-01-08T04:19:42.677Z,29.00
2023-01-08T04:21:16.161Z,24.50
2023-01-08T04:22:48.349Z,27.15
2023-01-08T04:24:21.801Z,24.08
2023-01-08T04:25:55.239Z,19.90
2023-01-08T04:27:29.075Z,19.20
2023-01-08T04:29:03.556Z,15.75
2023-01-08T04:30:36.764Z,14.68
2023-01-08T04:32:09.853Z,18.52
2023-01-08T04:33:44.649Z,13.43
2023-01-08T04:35:17.886Z,12.13
2023-01-08T04:36:50.982Z,15.00
2023-01-08T04:38:24.138Z,13.73
2023-01-08T04:39:57.464Z,20.38
2023-01-08T04:41:30.622Z,16.67
2023-01-08T04:43:03.880Z,21.17
2023-01-08T04:44:37.032Z,18.30
2023-01-08T04:46:10.346Z,14.45
2023-01-08T04:47:43.525Z,14.85
2023-01-08T04:49:18.418Z,14.82
2023-01-08T04:50:51.756Z,17.35
2023-01-08T04:52:25.387Z,14.07
2023-01-08T04:53:58.945Z,18.08
2023-01-08T04:55:31.342Z,18.52
2023-01-08T04:57:04.532Z,41.17
2023-01-08T04:58:38.080Z,42.33
2023-01-08T05:00:12.715Z,35.83
2023-01-08T05:01:46.013Z,37.08
2023-01-08T05:03:19.355Z,36.33
2023-01-08T05:04:54.058Z,36.03
2023-01-08T05:06:28.255Z,36.92
2023-01-08T05:08:01.643Z,45.15
2023-01-08T05:09:34.801Z,45.22
2023-01-08T05:11:10.899Z,50.22
2023-01-08T05:12:44.138Z,52.42
2023-01-08T05:14:17.461Z,48.00
2023-01-08T05:15:49.788Z,61.88
2023-01-08T05:17:23.048Z,52.78
2023-01-08T05:18:56.188Z,41.55
2023-01-08T05:20:31.124Z,45.83
2023-01-08T05:22:04.264Z,45.60
2023-01-08T05:23:37.704Z,48.63
2023-01-08T05:25:11.208Z,44.58
2023-01-08T05:26:44.804Z,47.05
2023-01-08T05:28:17.928Z,58.17
2023-01-08T05:29:51.849Z,57.22
2023-01-08T05:31:25.012Z,62.65
2023-01-08T05:32:58.228Z,32.38
2023-01-08T05:34:31.416Z,21.10
2023-01-08T05:36:08.591Z,15.50
2023-01-08T05:37:41.716Z,13.55
2023-01-08T05:39:14.960Z,12.25
2023-01-08T05:40:48.155Z,17.77
2023-01-08T05:42:21.564Z,15.23
2023-01-08T05:43:54.798Z,24.35
2023-01-08T05:45:28.350Z,31.73
2023-01-08T05:47:01.507Z,73.65
2023-01-08T05:48:37.409Z,64.53
2023-01-08T05:50:11.368Z,16.30
2023-01-08T05:51:45.865Z,18.17
2023-01-08T05:53:19.029Z,19.33
2023-01-08T05:54:52.735Z,13.85
2023-01-08T05:56:25.891Z,17.48
2023-01-08T05:58:01.481Z,12.65
2023-01-08T05:59:34.594Z,15.20
2023-01-08T06:01:10.633Z,13.02
2023-01-08T06:02:46.600Z,15.85
2023-01-08T06:04:19.852Z,11.73
2023-01-08T06:05:53.045Z,10.90
2023-01-08T06:07:27.844Z,17.25
2023-01-08T06:09:00.948Z,18.13
2023-01-08T06:10:34.141Z,18.98
2023-01-08T06:12:07.975Z,15.43
2023-01-08T06:13:43.970Z,15.25
2023-01-08T06:15:17.213Z,18.63
2023-01-08T06:16:50.674Z,18.63
2023-01-08T06:18:23.867Z,28.73
2023-01-08T06:19:57.143Z,22.65
2023-01-08T06:21:30.234Z,21.40
2023-01-08T06:23:03.887Z,30.65
2023-01-08T06:24:37.014Z,22.25
2023-01-08T06:26:10.187Z,19.02
2023-01-08T06:27:43.308Z,18.80
2023-01-08T06:29:16.791Z,16.10
2023-01-08T06:31:10.512Z,23.48
2023-01-08T06:32:44.287Z,16.55
2023-01-08T06:34:17.532Z,15.30
2023-01-08T06:35:50.721Z,15.90
2023-01-08T06:37:24.339Z,28.70
2023-01-08T06:38:59.624Z,23.75
2023-01-08T06:40:33.904Z,28.70
2023-01-08T06:42:07.204Z,33.08
2023-01-08T06:43:41.122Z,40.25
2023-01-08T06:45:15.033Z,42.13
2023-01-08T06:46:49.585Z,45.65
2023-01-08T06:48:23.270Z,60.13
2023-01-08T06:49:56.515Z,27.52
2023-01-08T06:51:29.970Z,32.78
2023-01-08T06:53:03.461Z,26.23
2023-01-08T06:54:38.733Z,50.55
2023-01-08T06:56:12.313Z,22.83
2023-01-08T06:57:45.459Z,25.35
2023-01-08T06:59:17.871Z,19.45
2023-01-08T07:00:51.418Z,25.13
2023-01-08T07:02:25.748Z,23.67
2023-01-08T07:04:00.118Z,26.48
2023-01-08T07:05:36.566Z,27.38
2023-01-08T07:07:09.945Z,31.13
2023-01-08T07:08:44.623Z,33.05
2023-01-08T07:10:20.250Z,37.10
2023-01-08T07:11:53.811Z,41.17
2023-01-08T07:13:27.960Z,29.95
2023-01-08T07:15:01.456Z,47.20
2023-01-08T07:16:34.847Z,44.55
2023-01-08T07:18:09.079Z,42.40
2023-01-08T07:19:43.566Z,56.50
2023-01-08T07:21:18.105Z,51.78
2023-01-08T07:22:51.241Z,52.90
2023-01-08T07:24:24.901Z,55.08
2023-01-08T07:26:03.283Z,52.47
2023-01-08T07:27:36.869Z,41.88
2023-01-08T07:29:10.317Z,46.85
2023-01-08T07:30:45.064Z,51.72
2023-01-08T07:32:18.555Z,51.28
2023-01-08T07:33:51.850Z,53.38
2023-01-08T07:35:25.096Z,44.20
2023-01-08T07:36:58.765Z,38.85
2023-01-08T07:38:32.864Z,31.52
2023-01-08T07:40:08.030Z,30.38
2023-01-08T07:41:44.463Z,35.70
2023-01-08T07:43:17.809Z,36.78
2023-01-08T07:44:51.402Z,48.30
2023-01-08T07:46:25.285Z,39.92
2023-01-08T07:47:59.313Z,39.25
2023-01-08T07:49:39.155Z,32.97
2023-01-08T07:51:12.484Z,38.70
2023-01-08T07:52:45.763Z,39.50
2023-01-08T07:54:19.639Z,49.03
2023-01-08T07:56:01.358Z,46.17
2023-01-08T07:57:39.060Z,37.35
2023-01-08T07:59:12.450Z,46.20
2023-01-08T08:00:45.725Z,35.88
2023-01-08T08:02:19.028Z,41.78
2023-01-08T08:03:52.962Z,38.05
2023-01-08T08:05:26.518Z,36.25
2023-01-08T08:06:59.991Z,36.25
2023-01-08T08:08:33.196Z,39.58
2023-01-08T08:10:07.699Z,36.35
2023-01-08T08:11:41.143Z,35.90
2023-01-08T08:13:16.147Z,35.63
2023-01-08T08:14:49.865Z,36.92
2023-01-08T08:16:23.149Z,38.35
2023-01-08T08:17:56.633Z,31.73
2023-01-08T08:19:30.022Z,34.88
2023-01-08T08:21:06.353Z,42.90
2023-01-08T08:22:39.443Z,31.33
2023-01-08T08:24:12.742Z,33.63
2023-01-08T08:25:45.992Z,35.75
2023-01-08T08:27:19.581Z,33.35
2023-01-08T08:28:54.340Z,33.40
2023-01-08T08:30:28.627Z,34.92
2023-01-08T08:32:01.774Z,35.80
2023-01-08T08:33:35.034Z,33.83
2023-01-08T08:35:08.751Z,37.08
2023-01-08T08:36:42.043Z,34.95
2023-01-08T08:38:15.614Z,30.08
2023-01-08T08:39:53.248Z,36.88
2023-01-08T08:41:29.618Z,38.67
2023-01-08T08:43:05.554Z,32.00
2023-01-08T08:44:43.096Z,33.28
2023-01-08T08:46:16.963Z,34.13
2023-01-08T08:47:50.116Z,38.80
2023-01-08T08:49:23.358Z,28.90
2023-01-08T08:50:56.669Z,27.13
2023-01-08T08:52:31.272Z,25.95
2023-01-08T08:54:05.210Z,27.02
2023-01-08T08:55:38.416Z,24.33
2023-01-08T08:57:12.319Z,24.42
2023-01-08T08:58:46.894Z,28.35
2023-01-08T09:00:22.046Z,28.45
2023-01-08T09:01:55.381Z,28.65
2023-01-08T09:03:29.037Z,33.13
2023-01-08T09:05:02.258Z,48.72
2023-01-08T09:06:35.562Z,41.03
2023-01-08T09:08:09.735Z,29.33
2023-01-08T09:09:43.013Z,32.15
2023-01-08T09:11:16.231Z,34.38
2023-01-08T09:12:49.627Z,24.13
2023-01-08T09:14:23.655Z,30.42
2023-01-08T09:16:00.800Z,31.25
2023-01-08T09:17:34.601Z,30.30
2023-01-08T09:19:08.575Z,28.65
2023-01-08T09:20:42.631Z,32.55
2023-01-08T09:22:15.890Z,37.50
2023-01-08T09:23:50.156Z,38.35
2023-01-08T09:25:23.289Z,40.95
2023-01-08T09:26:57.409Z,40.38
2023-01-08T09:28:31.339Z,30.98
2023-01-08T09:30:05.772Z,27.42
2023-01-08T09:31:40.881Z,28.30
2023-01-08T09:33:15.089Z,27.52
2023-01-08T09:34:56.524Z,25.00
2023-01-08T09:36:30.948Z,25.63
2023-01-08T09:38:04.800Z,23.33
2023-01-08T09:39:38.025Z,25.35
2023-01-08T09:41:15.013Z,26.95
2023-01-08T09:42:55.323Z,28.05
2023-01-08T09:44:32.714Z,28.35
2023-01-08T09:46:08.966Z,36.65
2023-01-08T09:47:45.507Z,30.70
2023-01-08T09:49:25.709Z,35.47
2023-01-08T09:51:00.594Z,33.63
2023-01-08T09:52:34.354Z,33.40
2023-01-08T09:54:08.292Z,48.28
2023-01-08T09:55:42.649Z,42.65
2023-01-08T09:57:18.835Z,46.78
2023-01-08T09:58:54.175Z,73.43
2023-01-08T10:00:30.391Z,61.90
2023-01-08T10:02:05.566Z,50.47
2023-01-08T10:03:43.617Z,49.63
2023-01-08T10:05:19.806Z,46.90
2023-01-08T10:06:57.568Z,40.20
2023-01-08T10:08:30.910Z,43.55
2023-01-08T10:10:04.252Z,44.30
2023-01-08T10:11:43.533Z,42.75
2023-01-08T10:13:17.494Z,48.60
2023-01-08T10:14:52.547Z,56.08
2023-01-08T10:16:32.081Z,53.65
2023-01-08T10:18:07.769Z,46.58
2023-01-08T10:19:41.469Z,49.92
2023-01-08T10:21:15.776Z,45.08
2023-01-08T10:22:54.334Z,41.25
2023-01-08T10:24:39.733Z,54.10
2023-01-08T10:26:12.917Z,44.28
2023-01-08T10:27:52.351Z,46.70
2023-01-08T10:29:26.587Z,40.28
2023-01-08T10:31:10.369Z,41.60
2023-01-08T10:32:48.910Z,43.22
2023-01-08T10:34:32.920Z,39.10
2023-01-08T10:36:10.069Z,45.95
2023-01-08T10:37:44.877Z,46.47
2023-01-08T10:39:22.866Z,45.10
2023-01-08T10:40:57.821Z,33.90
2023-01-08T10:42:36.445Z,35.30
2023-01-08T10:44:17.862Z,37.25
2023-01-08T10:46:03.162Z,37.70
2023-01-08T10:47:38.428Z,34.88
2023-01-08T10:49:19.950Z,29.50
2023-01-08T10:50:53.323Z,32.25
2023-01-08T10:52:31.729Z,29.48
2023-01-08T10:54:15.873Z,28.65
2023-01-08T10:55:59.115Z,32.75
2023-01-08T10:57:32.943Z,34.78
2023-01-08T10:59:06.238Z,34.70
2023-01-08T11:00:39.832Z,29.45
2023-01-08T11:02:22.597Z,28.17
2023-01-08T11:03:59.834Z,26.60
2023-01-08T11:05:35.235Z,26.02
2023-01-08T11:07:20.399Z,23.83
2023-01-08T11:08:55.882Z,22.45
2023-01-08T11:10:30.731Z,31.88
2023-01-08T11:12:05.896Z,21.60
2023-01-08T11:13:39.858Z,26.42
2023-01-08T11:15:35.689Z,23.17
2023-01-08T11:17:12.635Z,24.00
2023-01-08T11:18:49.833Z,24.55
2023-01-08T11:20:25.485Z,31.65
2023-01-08T11:22:01.089Z,23.80
2023-01-08T11:23:34.266Z,25.27
2023-01-08T11:25:14.628Z,25.23
2023-01-08T11:26:52.409Z,114.43
2023-01-08T11:28:35.002Z,40.53
2023-01-08T11:30:14.702Z,27.23
2023-01-08T11:31:55.443Z,23.33
2023-01-08T11:33:32.335Z,20.17
2023-01-08T11:35:14.648Z,18.40
2023-01-08T11:36:52.299Z,19.70
2023-01-08T11:38:25.608Z,16.63
2023-01-08T11:39:58.967Z,10.40
2023-01-08T11:41:47.596Z,13.50
2023-01-08T11:43:35.604Z,18.15
2023-01-08T11:45:19.108Z,16.17
2023-01-08T11:47:00.998Z,14.52
2023-01-08T11:48:51.311Z,15.73
2023-01-08T11:50:29.555Z,20.08
2023-01-08T11:52:18.801Z,16.85
2023-01-08T11:54:03.952Z,21.45
2023-01-08T11:55:51.043Z,16.40
2023-01-08T11:57:35.421Z,10.80
2023-01-08T11:59:20.392Z,12.60
2023-01-08T12:01:04.241Z,13.80
2023-01-08T12:02:52.567Z,12.13
2023-01-08T12:04:53.378Z,16.88
2023-01-08T12:06:39.342Z,22.77
2023-01-08T12:08:20.819Z,18.02
2023-01-08T12:10:01.570Z,20.02
2023-01-08T12:11:41.970Z,24.13
2023-01-08T12:13:54.766Z,19.95
2023-01-08T12:15:48.857Z,24.92
2023-01-08T12:17:56.169Z,23.55
2023-01-08T12:19:42.536Z,19.77
2023-01-08T12:21:22.689Z,17.00
2023-01-08T12:23:06.770Z,16.67
2023-01-08T12:24:58.894Z,14.65
2023-01-08T12:26:40.651Z,17.95
2023-01-08T12:28:33.811Z,23.30
2023-01-08T12:30:19.216Z,24.38
2023-01-08T12:32:14.779Z,27.08
2023-01-08T12:33:53.167Z,33.90
2023-01-08T12:35:30.698Z,30.58
2023-01-08T12:37:13.432Z,37.45
2023-01-08T12:38:54.596Z,37.00
2023-01-08T12:40:33.519Z,24.02
2023-01-08T12:42:12.360Z,22.92
2023-01-08T12:43:52.453Z,20.63
2023-01-08T12:45:29.324Z,21.25
2023-01-08T12:47:06.855Z,25.92
2023-01-08T12:48:40.931Z,30.30
2023-01-08T12:50:28.643Z,27.75
2023-01-08T12:52:10.270Z,33.80
2023-01-08T12:53:56.112Z,30.30
2023-01-08T12:55:41.771Z,41.67
2023-01-08T12:57:22.449Z,30.38
2023-01-08T12:59:06.565Z,42.60
2023-01-08T13:00:42.932Z,47.63
2023-01-08T13:02:33.880Z,32.13
2023-01-08T13:04:10.552Z,23.33
2023-01-08T13:05:44.901Z,17.80
2023-01-08T13:07:21.553Z,15.82
2023-01-08T13:09:01.530Z,12.10
2023-01-08T13:10:40.042Z,12.68
2023-01-08T13:12:16.600Z,9.07
2023-01-08T13:13:49.914Z,10.82
2023-01-08T13:15:26.261Z,11.55
2023-01-08T13:17:05.622Z,13.20
2023-01-08T13:18:40.341Z,16.27
2023-01-08T13:20:23.068Z,15.23
2023-01-08T13:21:58.877Z,13.77
2023-01-08T13:23:35.262Z,12.48
2023-01-08T13:25:32.344Z,11.38
2023-01-08T13:27:24.228Z,12.82
2023-01-08T13:29:08.203Z,19.10
2023-01-08T13:30:43.371Z,18.02
2023-01-08T13:32:28.157Z,20.48
2023-01-08T13:34:02.771Z,25.20
2023-01-08T13:35:36.356Z,14.38
2023-01-08T13:37:19.660Z,15.68
2023-01-08T13:39:02.627Z,7.35
2023-01-08T13:40:53.552Z,10.77
2023-01-08T13:42:28.815Z,10.90
2023-01-08T13:44:05.350Z,11.15
2023-01-08T13:45:38.896Z,10.57
2023-01-08T13:47:21.379Z,11.27
2023-01-08T13:49:01.469Z,20.42
2023-01-08T13:50:38.862Z,18.88
2023-01-08T13:52:32.834Z,19.13
2023-01-08T13:54:17.322Z,14.38
2023-01-08T13:55:58.316Z,24.67
2023-01-08T13:57:39.127Z,20.63
2023-01-08T13:59:28.106Z,13.98
2023-01-08T14:01:03.157Z,18.13
2023-01-08T14:02:44.744Z,18.90
2023-01-08T14:04:22.062Z,24.80
2023-01-08T14:06:07.655Z,23.17
2023-01-08T14:07:40.875Z,13.07
2023-01-08T14:09:22.732Z,12.18
2023-01-08T14:10:56.319Z,15.85
2023-01-08T14:12:29.677Z,10.25
2023-01-08T14:14:03.446Z,13.70
2023-01-08T14:15:37.076Z,10.70
2023-01-08T14:17:17.689Z,13.68
2023-01-08T14:18:52.167Z,15.82
2023-01-08T14:20:32.514Z,12.55
2023-01-08T14:22:17.069Z,14.60
2023-01-08T14:23:52.776Z,15.00
2023-01-08T14:25:26.528Z,11.48
2023-01-08T14:27:01.903Z,12.43
2023-01-08T14:28:35.834Z,20.92
2023-01-08T14:30:17.406Z,16.92
2023-01-08T14:31:53.282Z,21.02
2023-01-08T14:33:32.332Z,23.60
2023-01-08T14:35:09.529Z,16.25
2023-01-08T14:36:44.053Z,18.33
2023-01-08T14:38:19.414Z,24.60
2023-01-08T14:39:56.523Z,20.98
2023-01-08T14:41:49.626Z,26.38
2023-01-08T14:43:23.604Z,25.35
2023-01-08T14:44:58.404Z,34.38
2023-01-08T14:46:32.056Z,39.83
2023-01-08T14:48:12.958Z,58.25
2023-01-08T14:49:53.356Z,42.08
2023-01-08T14:51:29.242Z,42.33
2023-01-08T14:53:08.374Z,29.73
2023-01-08T14:54:47.597Z,31.25
2023-01-08T14:56:23.751Z,18.35
2023-01-08T14:57:58.287Z,22.23
2023-01-08T14:59:34.864Z,36.08
2023-01-08T15:01:15.121Z,19.33
2023-01-08T15:02:50.670Z,21.67
2023-01-08T15:04:25.068Z,15.55
2023-01-08T15:06:01.697Z,27.02
2023-01-08T15:07:35.330Z,20.63
2023-01-08T15:09:22.467Z,19.00
2023-01-08T15:11:04.728Z,12.90
2023-01-08T15:12:38.191Z,16.48
2023-01-08T15:14:14.794Z,18.17
2023-01-08T15:15:56.276Z,19.90
2023-01-08T15:17:30.163Z,21.27
2023-01-08T15:19:08.783Z,20.90
2023-01-08T15:20:46.038Z,36.78
2023-01-08T15:22:22.185Z,41.60
2023-01-08T15:23:58.048Z,32.20
2023-01-08T15:25:32.038Z,31.23
2023-01-08T15:27:10.706Z,45.42
2023-01-08T15:28:53.026Z,61.00
2023-01-08T15:30:29.720Z,79.57
2023-01-08T15:32:12.251Z,83.30
2023-01-08T15:33:46.188Z,68.22
2023-01-08T15:35:20.291Z,69.88
2023-01-08T15:36:53.485Z,43.65
2023-01-08T15:38:26.789Z,39.65
2023-01-08T15:40:00.822Z,41.50
2023-01-08T15:41:53.935Z,142.52
2023-01-08T15:43:28.494Z,62.85
2023-01-08T15:45:01.632Z,61.42
2023-01-08T15:46:35.357Z,38.28
2023-01-08T15:48:09.904Z,48.03
2023-01-08T15:49:43.052Z,51.53
2023-01-08T15:51:16.694Z,56.17
2023-01-08T15:52:49.263Z,59.90
2023-01-08T15:54:26.613Z,20.08
2023-01-08T15:55:59.756Z,36.30
2023-01-08T15:57:38.651Z,50.97
2023-01-08T15:59:15.512Z,48.80
2023-01-08T16:00:48.903Z,40.70
2023-01-08T16:02:22.822Z,39.70
2023-01-08T16:03:56.242Z,51.00
2023-01-08T16:05:33.190Z,38.78
2023-01-08T16:07:06.605Z,52.65
2023-01-08T16:08:39.740Z,64.80
2023-01-08T16:10:13.295Z,72.57
2023-01-08T16:11:46.999Z,81.07
2023-01-08T16:13:20.582Z,78.25
2023-01-08T16:14:57.676Z,85.38
2023-01-08T16:16:31.204Z,78.78
2023-01-08T16:18:04.602Z,76.75
2023-01-08T16:19:38.002Z,99.35
2023-01-08T16:21:12.579Z,82.13
2023-01-08T16:22:46.190Z,69.43
2023-01-08T16:24:19.458Z,73.45
2023-01-08T16:25:52.943Z,55.83
2023-01-08T16:27:26.219Z,48.97
2023-01-08T16:28:59.754Z,49.97
2023-01-08T16:30:34.891Z,39.70
2023-01-08T16:32:08.722Z,50.03
2023-01-08T16:33:41.917Z,57.35
2023-01-08T16:35:16.198Z,63.67
2023-01-08T16:36:49.990Z,56.50
2023-01-08T16:38:25.484Z,55.25
2023-01-08T16:39:58.839Z,50.65
2023-01-08T16:41:32.071Z,62.28
2023-01-08T16:43:05.177Z,44.85
2023-01-08T16:44:39.603Z,51.20
2023-01-08T16:46:16.377Z,38.45
2023-01-08T16:47:49.794Z,48.30
2023-01-08T16:49:23.754Z,40.22
2023-01-08T16:50:57.303Z,46.00
2023-01-08T16:52:30.717Z,41.55
2023-01-08T16:54:04.128Z,51.35
2023-01-08T16:55:38.483Z,51.80
2023-01-08T16:57:12.403Z,59.03
2023-01-08T16:58:47.462Z,58.88
2023-01-08T17:00:22.295Z,56.33
2023-01-08T17:01:56.973Z,52.58
2023-01-08T17:03:30.971Z,78.47
2023-01-08T17:05:04.357Z,83.63
2023-01-08T17:06:38.695Z,82.20
2023-01-08T17:08:15.954Z,83.30
2023-01-08T17:09:49.577Z,75.60
2023-01-08T17:11:25.208Z,66.07
2023-01-08T17:12:58.397Z,60.63
2023-01-08T17:14:31.989Z,61.10
2023-01-08T17:16:06.057Z,62.40
2023-01-08T17:17:40.819Z,63.80
2023-01-08T17:19:14.201Z,56.92
2023-01-08T17:20:53.549Z,63.65
2023-01-08T17:22:27.397Z,53.97
2023-01-08T17:24:00.663Z,63.42
2023-01-08T17:25:33.797Z,68.38
2023-01-08T17:27:07.039Z,81.80
2023-01-08T17:28:41.634Z,76.63
2023-01-08T17:30:15.678Z,72.95
2023-01-08T17:31:49.197Z,83.88
2023-01-08T17:33:23.816Z,62.03
2023-01-08T17:34:57.670Z,72.45
2023-01-08T17:36:32.531Z,60.30
2023-01-08T17:38:05.891Z,62.30
2023-01-08T17:39:39.173Z,75.85
2023-01-08T17:41:32.941Z,70.00
2023-01-08T17:43:05.101Z,68.05
2023-01-08T17:44:38.368Z,72.03
2023-01-08T17:46:11.617Z,69.15
2023-01-08T17:47:45.152Z,58.30
2023-01-08T17:49:20.157Z,64.00
2023-01-08T17:50:53.453Z,54.60
2023-01-08T17:52:27.350Z,63.00
2023-01-08T17:54:03.068Z,57.35
2023-01-08T17:55:37.252Z,48.72
2023-01-08T17:57:12.252Z,54.45
2023-01-08T17:58:45.903Z,52.50
2023-01-08T18:00:20.742Z,48.55
2023-01-08T18:01:54.441Z,49.28
2023-01-08T18:03:28.244Z,51.63
2023-01-08T18:05:02.994Z,60.92
2023-01-08T18:06:36.685Z,73.95
2023-01-08T18:08:10.056Z,72.82
2023-01-08T18:09:44.113Z,81.63
2023-01-08T18:11:17.752Z,76.45
2023-01-08T18:12:51.306Z,80.75
2023-01-08T18:14:25.062Z,68.18
2023-01-08T18:16:03.348Z,190.48
2023-01-08T18:17:37.034Z,86.40
2023-01-08T18:19:10.873Z,86.95
2023-01-08T18:20:45.619Z,79.95
2023-01-08T18:22:19.244Z,74.90
2023-01-08T18:23:52.810Z,51.28
2023-01-08T18:25:26.344Z,45.55
2023-01-08T18:26:59.800Z,38.17
2023-01-08T18:28:33.639Z,43.83
2023-01-08T18:30:08.517Z,48.70
2023-01-08T18:31:44.311Z,49.45
2023-01-08T18:33:19.091Z,46.33
2023-01-08T18:34:52.467Z,45.47
2023-01-08T18:36:27.693Z,46.50
2023-01-08T18:38:01.080Z,47.72
2023-01-08T18:39:34.782Z,47.83
2023-01-08T18:41:09.261Z,39.22
2023-01-08T18:42:41.566Z,35.28
2023-01-08T18:44:15.999Z,41.50
2023-01-08T18:45:49.654Z,38.35
2023-01-08T18:47:23.861Z,33.80
2023-01-08T18:48:57.558Z,38.55
2023-01-08T18:50:31.512Z,44.45
2023-01-08T18:52:06.545Z,45.15
2023-01-08T18:53:39.919Z,44.58
2023-01-08T18:55:13.785Z,59.58
2023-01-08T18:56:48.271Z,74.32
2023-01-08T18:58:21.795Z,71.10
2023-01-08T18:59:55.251Z,67.22
2023-01-08T19:01:29.323Z,109.53
2023-01-08T19:03:09.530Z,76.97
2023-01-08T19:04:42.814Z,86.95
2023-01-08T19:06:17.629Z,63.67
2023-01-08T19:07:52.536Z,64.72
2023-01-08T19:09:26.190Z,63.08
2023-01-08T19:10:59.447Z,57.03
2023-01-08T19:12:32.719Z,56.13
2023-01-08T19:14:06.257Z,51.55
2023-01-08T19:15:40.334Z,46.10
2023-01-08T19:17:14.078Z,51.50
2023-01-08T19:18:47.742Z,57.20
2023-01-08T19:20:21.242Z,64.32
2023-01-08T19:21:55.144Z,97.25
2023-01-08T19:23:30.678Z,155.02
2023-01-08T19:25:03.961Z,71.88
2023-01-08T19:26:38.464Z,53.60
2023-01-08T19:28:12.079Z,55.10
2023-01-08T19:29:45.387Z,60.03
2023-01-08T19:31:19.965Z,38.63
2023-01-08T19:32:53.192Z,34.78
2023-01-08T19:34:26.744Z,33.28
2023-01-08T19:36:02.475Z,45.90
2023-01-08T19:37:35.859Z,30.50
2023-01-08T19:39:11.435Z,29.25
2023-01-08T19:40:45.322Z,35.70
2023-01-08T19:42:45.165Z,32.20
2023-01-08T19:44:18.889Z,30.20
2023-01-08T19:45:52.460Z,33.03
2023-01-08T19:47:26.075Z,30.58
2023-01-08T19:49:00.251Z,31.83
2023-01-08T19:50:34.507Z,27.92
2023-01-08T19:52:08.147Z,26.38
2023-01-08T19:53:42.221Z,25.75
2023-01-08T19:55:19.353Z,22.70
2023-01-08T19:56:52.716Z,25.45
2023-01-08T19:58:29.037Z,25.60
2023-01-08T20:00:02.807Z,23.50
2023-01-08T20:01:45.154Z,22.17
2023-01-08T20:03:21.549Z,25.58
2023-01-08T20:04:54.967Z,25.00
2023-01-08T20:06:29.470Z,27.10
2023-01-08T20:08:02.701Z,32.50
2023-01-08T20:09:38.669Z,32.50
2023-01-08T20:11:15.437Z,38.00
2023-01-08T20:12:48.713Z,32.58
2023-01-08T20:14:21.959Z,29.75
2023-01-08T20:15:57.638Z,32.45
2023-01-08T20:17:31.068Z,39.65
2023-01-08T20:19:05.352Z,41.63
2023-01-08T20:20:38.514Z,30.63
2023-01-08T20:22:11.756Z,32.42
2023-01-08T20:23:46.334Z,30.10
2023-01-08T20:25:19.887Z,30.08
2023-01-08T20:26:54.657Z,35.17
2023-01-08T20:28:27.858Z,30.13
2023-01-08T20:30:01.811Z,30.42
2023-01-08T20:31:35.638Z,32.95
2023-01-08T20:33:08.780Z,42.38
2023-01-08T20:34:42.319Z,35.92
2023-01-08T20:36:17.650Z,36.40